Flight Track Log - Related Links

Times and Time Zones

All times are in EDT time to prevent confusion due to time zone crossing. See the SWA2436 flight status page for this flight to view local times or setup timezone preferences in your user account.

Time Position Orientation Groundspeed Altitude Reporting Facility
EDT Latitude Longitude Course Direction KTS MPH feet Rate Location/Type
Thu 12:39:38 PM 39.9167 -104.6667 90° East 208 239 7,100  Level Denver TRACON
Thu 12:40:38 PM 39.9167 -104.5833 90° East 245 282 9,900 1,294 Climbing Denver TRACON
Thu 12:42:11 PM 39.9292 -104.4303 84° East 299 344 10,400 1,355 Climbing Denver Center
Thu 12:43:13 PM 39.9208 -104.2981 95° East 361 415 13,400 2,903 Climbing Denver Center
Thu 12:44:15 PM 39.9125 -104.1511 94° East 378 435 16,400 2,903 Climbing Denver Center
Thu 12:45:17 PM 39.9289 -104.0111 81° East 394 453 19,400 2,710 Climbing Denver Center
Thu 12:46:19 PM 39.9558 -103.8611 77° East 400 460 22,000 2,419 Climbing Denver Center
Thu 12:47:21 PM 39.9803 -103.7067 78° East 411 473 24,400 1,984 Climbing Denver Center
Thu 12:48:23 PM 40.0081 -103.5531 77° East 433 498 26,100 1,742 Climbing Denver Center
Thu 12:49:25 PM 40.0347 -103.3911 78° East 450 518 28,000 1,742 Climbing Denver Center
Thu 12:50:27 PM 40.0631 -103.2269 77° East 460 529 29,700 1,452 Climbing Denver Center
Thu 12:51:29 PM 40.0908 -103.0581 78° East 470 541 31,000 1,113 Climbing Denver Center
Thu 12:52:31 PM 40.1197 -102.8861 78° East 479 551 32,000 484 Climbing Denver Center
Thu 12:53:33 PM 40.1464 -102.7158 78° East 475 547 32,000 480 Level Denver Center
Thu 12:54:36 PM 40.1789 -102.5369 77° East 472 543 33,000 1,440 Climbing Denver Center
Thu 12:55:38 PM 40.2078 -102.3467 79° East 477 549 35,000 1,548 Climbing Denver Center
Thu 12:56:40 PM 40.2322 -102.1897 78° East 465 535 36,200 823 Climbing Denver Center
Thu 12:57:42 PM 40.2633 -102.0017 78° East 472 543 36,700 387 Climbing Denver Center
Thu 12:58:44 PM 40.2900 -101.8356 78° East 484 557 37,000 145 Climbing Denver Center
Thu 12:59:46 PM 40.3189 -101.6431 79° East 484 557 37,000  Level Denver Center
Thu 01:00:48 PM 40.3439 -101.4775 79° East 485 558 37,000  Level Denver Center
Thu 01:01:50 PM 40.3719 -101.2850 79° East 484 557 37,000  Level Denver Center
Thu 01:02:52 PM 40.3964 -101.1208 79° East 482 555 37,000  Level Denver Center
Thu 01:03:54 PM 40.4222 -100.9333 80° East 473 544 37,000  Level Denver Center
Thu 01:04:56 PM 40.4467 -100.7725 79° East 473 544 37,000  Level Denver Center
Thu 01:05:58 PM 40.4725 -100.5872 80° East 467 537 37,000  Level Denver Center
Thu 01:07:00 PM 40.4956 -100.4269 79° East 470 541 37,000  Level Denver Center
Thu 01:08:02 PM 40.5219 -100.2408 79° East 469 540 37,000  Level Denver Center
Thu 01:09:04 PM 40.5439 -100.0833 80° East 463 533 37,000  Level Denver Center
Thu 01:10:06 PM 40.5697 -99.8983 80° East 462 532 37,000  Level Denver Center
Thu 01:11:09 PM 40.5925 -99.7272 80° East 466 536 37,000  Level Denver Center
Thu 01:12:11 PM 40.6153 -99.5564 80° East 473 544 37,000  Level Denver Center
Thu 01:13:13 PM 40.6386 -99.3858 80° East 475 547 37,000  Level Denver Center
Thu 01:14:15 PM 40.6603 -99.2153 80° East 475 547 37,000  Level Denver Center
Thu 01:15:17 PM 40.6822 -99.0436 80° East 477 549 37,000  Level Denver Center
Thu 01:16:19 PM 40.7086 -98.8372 80° East 478 550 37,000  Level Denver Center
Thu 01:17:21 PM 40.7314 -98.6636 80° East 483 556 37,000  Level Denver Center
Thu 01:18:23 PM 40.7528 -98.4931 81° East 479 551 37,000  Level Denver Center
Thu 01:19:38 PM 40.7775 -98.2856 81° East 481 554 37,000  Level Minneapolis Center
Thu 01:20:40 PM 40.7983 -98.1133 81° East 479 551 37,000  Level Minneapolis Center
Thu 01:21:41 PM 40.8217 -97.9058 81° East 478 550 37,000  Level Minneapolis Center
Thu 01:22:43 PM 40.8417 -97.7333 81° East 477 549 37,000  Level Minneapolis Center
Thu 01:23:45 PM 40.8614 -97.5622 81° East 473 544 37,000  Level Minneapolis Center
Thu 01:24:46 PM 40.8817 -97.3903 81° East 474 545 37,000  Level Minneapolis Center
Thu 01:25:48 PM 40.9011 -97.2236 81° East 478 550 37,000  Level Minneapolis Center
Thu 01:26:50 PM 40.9189 -97.0506 82° East 477 549 37,000  Level Minneapolis Center
Thu 01:27:51 PM 40.9419 -96.8433 82° East 476 548 37,000  Level Minneapolis Center
Thu 01:28:53 PM 40.9611 -96.6700 82° East 478 550 37,000  Level Minneapolis Center
Thu 01:29:55 PM 40.9789 -96.4961 82° East 479 551 37,000  Level Minneapolis Center
Thu 01:30:57 PM 40.9981 -96.3219 82° East 482 555 37,000  Level Minneapolis Center
Thu 01:31:58 PM 41.0172 -96.1464 82° East 485 558 37,000 195 Level Minneapolis Center
Thu 01:33:00 PM 41.0342 -95.9711 83° East 486 559 37,400 823 Climbing Minneapolis Center
Thu 01:34:02 PM 41.0544 -95.7675 82° East 474 545 38,700 774 Climbing Minneapolis Center
Thu 01:35:04 PM 41.0706 -95.5972 83° East 471 542 39,000 146 Climbing Minneapolis Center
Thu 01:36:05 PM 41.0872 -95.4261 83° East 471 542 39,000  Level Minneapolis Center
Thu 01:37:07 PM 41.1036 -95.2522 83° East 474 545 39,000  Level Minneapolis Center
Thu 01:38:09 PM 41.1214 -95.0789 82° East 475 547 39,000  Level Minneapolis Center
Thu 01:39:11 PM 41.1367 -94.9053 83° East 476 548 39,000  Level Minneapolis Center
Thu 01:40:12 PM 41.1539 -94.6956 84° East 477 549 39,000  Level Minneapolis Center
Thu 01:41:14 PM 41.1683 -94.5228 84° East 474 545 39,000  Level Minneapolis Center
Thu 01:42:16 PM 41.1833 -94.3517 83° East 471 542 39,000  Level Minneapolis Center
Thu 01:44:19 PM 41.2122 -94.0119 83° East 472 543 39,000  Level Minneapolis Center
Thu 01:45:21 PM 41.2278 -93.8389 83° East 474 545 39,000  Level Minneapolis Center
Thu 01:46:23 PM 41.2644 -93.6322 77° East 479 551 39,000  Level Minneapolis Center
Thu 01:48:29 PM 41.3242 -93.2800 77° East 486 559 39,000  Level Chicago Center
Thu 01:49:28 PM 41.3522 -93.1050 78° East 488 562 39,000  Level Minneapolis Center
Thu 01:50:30 PM 41.3794 -92.9289 78° East 487 560 39,000  Level Minneapolis Center
Thu 01:51:32 PM 41.4083 -92.7514 78° East 490 564 39,000  Level Minneapolis Center
Thu 01:52:37 PM 41.4406 -92.5378 79° East 490 564 39,000  Level Chicago Center
Thu 01:53:38 PM 41.4689 -92.3558 78° East 489 563 39,000  Level Chicago Center
Thu 01:54:40 PM 41.4950 -92.1814 79° East 486 559 39,000  Level Chicago Center
Thu 01:55:42 PM 41.5208 -92.0069 79° East 484 557 39,000  Level Chicago Center
Thu 01:56:44 PM 41.5478 -91.8325 78° East 484 557 39,000  Level Chicago Center
Thu 01:57:46 PM 41.5794 -91.6219 79° East 486 559 39,000  Level Chicago Center
Thu 01:58:48 PM 41.6036 -91.4461 80° East 487 560 39,000  Level Chicago Center
Thu 01:59:50 PM 41.6286 -91.2706 79° East 487 560 39,000  Level Chicago Center
Thu 02:00:53 PM 41.6542 -91.0931 79° East 489 563 39,000  Level Chicago Center
Thu 02:01:55 PM 41.6794 -90.9158 79° East 492 566 39,000  Level Chicago Center
Thu 02:02:56 PM 41.7089 -90.6997 80° East 496 571 39,000  Level Chicago Center
Thu 02:03:58 PM 41.7350 -90.5117 79° East 499 574 39,000  Level Chicago Center
Thu 02:05:00 PM 41.7592 -90.3306 80° East 496 571 39,000  Level Chicago Center
Thu 02:06:02 PM 41.7842 -90.1464 80° East 499 574 39,000  Level Chicago Center
Thu 02:07:04 PM 41.8058 -89.9764 80° East 500 575 39,000  Level Chicago Center
Thu 02:08:06 PM 41.8331 -89.7744 80° East 500 575 39,000  Level Chicago Center
Thu 02:09:08 PM 41.8564 -89.5906 80° East 502 578 39,000  Level Chicago Center
Thu 02:10:10 PM 41.8767 -89.4067 82° East 503 579 39,000  Level Chicago Center
Thu 02:11:11 PM 41.9061 -89.1836 80° East 506 582 39,000  Level Chicago Center
Thu 02:12:13 PM 41.9283 -88.9986 81° East 504 580 39,000  Level Chicago Center
Thu 02:13:15 PM 41.9514 -88.8119 81° East 506 582 39,000  Level Chicago Center
Thu 02:14:17 PM 41.9733 -88.6222 81° East 511 588 39,000  Level Chicago Center
Thu 02:15:19 PM 41.9953 -88.4347 81° East 510 587 39,000  Level Chicago Center
Thu 02:16:21 PM 42.0169 -88.2469 81° East 508 585 39,000  Level Chicago Center
Thu 02:17:23 PM 42.0386 -88.0581 81° East 510 587 39,000  Level Chicago Center
Thu 02:18:25 PM 42.0636 -87.8381 81° East 499 574 39,000  Level Chicago Center
Thu 02:19:26 PM 42.0831 -87.6561 82° East 492 566 39,000  Level Chicago Center
Thu 02:20:28 PM 42.1028 -87.4753 82° East 489 563 39,000  Level Chicago Center
Thu 02:21:30 PM 42.1219 -87.2936 82° East 490 564 39,000  Level Chicago Center
Thu 02:22:32 PM 42.1419 -87.1100 82° East 495 570 39,000  Level Chicago Center
Thu 02:23:34 PM 42.1608 -86.9242 82° East 501 577 39,000  Level Chicago Center
Thu 02:24:36 PM 42.1803 -86.7378 82° East 504 580 39,000 194 Level Chicago Center
Thu 02:25:38 PM 42.2017 -86.5164 82° East 510 587 39,400 484 Climbing Chicago Center
Thu 02:26:40 PM 42.2211 -86.3231 82° East 518 596 40,000 290 Climbing Chicago Center
Thu 02:27:42 PM 42.2394 -86.1297 83° East 519 597 40,000  Level Chicago Center
Thu 02:28:44 PM 42.2592 -85.9167 83° East 516 594 40,000  Level Chicago Center
Thu 02:29:46 PM 42.2778 -85.7258 82° East 516 594 40,000  Level Chicago Center
Thu 02:30:47 PM 42.2953 -85.5331 83° East 521 600 40,000  Level Chicago Center
Thu 02:31:49 PM 42.3133 -85.3411 83° East 520 598 40,000  Level Chicago Center
Thu 02:32:33 PM 42.3278 -85.2039 82° East 515 593 40,000  Level Cleveland Center
Thu 02:33:33 PM 42.3458 -85.0114 83° East 515 593 40,000  Level Cleveland Center
Thu 02:34:33 PM 42.3614 -84.8183 84° East 515 593 40,000  Level Cleveland Center
Thu 02:35:33 PM 42.3725 -84.6250 85° East 515 593 40,000  Level Cleveland Center
Thu 02:36:33 PM 42.3872 -84.4347 84° East 510 587 40,000  Level Cleveland Center
Thu 02:37:33 PM 42.4039 -84.2447 83° East 515 593 40,000  Level Cleveland Center
Thu 02:38:33 PM 42.4183 -84.0514 84° East 515 593 40,000  Level Cleveland Center
Thu 02:39:33 PM 42.4344 -83.8581 83° East 515 593 40,000  Level Cleveland Center
Thu 02:40:33 PM 42.4481 -83.6703 84° East 515 593 40,000  Level Cleveland Center
Thu 02:41:33 PM 42.4633 -83.4767 84° East 515 593 40,000  Level Cleveland Center
Thu 02:42:33 PM 42.4744 -83.2828 85° East 515 593 40,000  Level Cleveland Center
Thu 02:43:33 PM 42.4869 -83.0947 85° East 515 593 40,000  Level Cleveland Center
Thu 02:44:33 PM 42.5014 -82.8981 84° East 515 593 40,000  Level Cleveland Center
Thu 02:45:33 PM 42.5136 -82.7042 85° East 515 593 40,000  Level Cleveland Center
Thu 02:46:33 PM 42.5256 -82.4989 85° East 515 593 40,000  Level Cleveland Center
Thu 02:47:33 PM 42.5392 -82.3022 85° East 515 593 40,000  Level Cleveland Center
Thu 02:48:33 PM 42.5522 -82.1081 85° East 515 593 40,000  Level Cleveland Center
Thu 02:49:33 PM 42.5608 -81.9164 86° East 515 593 40,000  Level Cleveland Center
Thu 02:50:33 PM 42.5756 -81.7167 84° East 524 603 40,000  Level Cleveland Center
Thu 02:51:33 PM 42.5856 -81.5250 86° East 512 589 40,000  Level Cleveland Center
Thu 02:52:33 PM 42.5931 -81.3503 87° East 517 595 40,000  Level Cleveland Center
Thu 02:53:33 PM 42.6047 -81.1586 85° East 523 602 40,000  Level Cleveland Center
Thu 02:54:33 PM 42.6158 -80.9611 86° East 517 595 40,000  Level Cleveland Center
Thu 02:55:33 PM 42.6247 -80.7639 86° East 517 595 40,000  Level Cleveland Center
Thu 02:56:33 PM 42.6331 -80.5719 87° East 511 588 40,000  Level Cleveland Center
Thu 02:57:33 PM 42.6414 -80.3575 87° East 520 598 40,000  Level Cleveland Center
Thu 02:58:33 PM 42.6533 -80.1653 85° East 519 597 40,000  Level Cleveland Center
Thu 02:59:33 PM 42.6589 -80.0072 87° East 514 592 40,000  Level Cleveland Center
Thu 03:00:33 PM 42.6700 -79.7925 86° East 519 597 40,000  Level Cleveland Center
Thu 03:01:33 PM 42.6769 -79.5975 87° East 519 597 40,000  Level Cleveland Center
Thu 03:02:33 PM 42.6856 -79.4025 86° East 519 597 40,000  Level Cleveland Center
Thu 03:03:33 PM 42.6917 -79.2075 87° East 519 597 40,000  Level Cleveland Center
Thu 03:04:33 PM 42.6975 -79.0069 88° East 519 597 40,000  Level Cleveland Center
Thu 03:05:33 PM 42.7031 -78.8117 88° East 519 597 40,000  Level Cleveland Center
Thu 03:06:33 PM 42.7081 -78.6139 88° East 519 597 40,000  Level Cleveland Center
Thu 03:07:33 PM 42.7150 -78.4186 87° East 519 597 40,000  Level Cleveland Center
Thu 03:08:33 PM 42.7197 -78.2264 88° East 519 597 40,000  Level Cleveland Center
Thu 03:09:33 PM 42.7239 -78.0283 88° East 519 597 40,000  Level Cleveland Center
Thu 03:10:33 PM 42.7297 -77.8331 88° East 519 597 40,000  Level Cleveland Center
Thu 03:11:33 PM 42.7350 -77.6206 88° East 519 597 40,000  Level Cleveland Center
Thu 03:13:12 PM 42.7375 -77.3203 89° East 529 609 40,000  Level Boston Center
Thu 03:14:10 PM 42.7417 -77.1225 88° East 524 603 40,000  Level Boston Center
Thu 03:15:10 PM 42.7456 -76.9250 88° East 519 597 40,000  Level Boston Center
Thu 03:16:11 PM 42.7467 -76.7297 89° East 519 597 40,000  Level Boston Center
Thu 03:17:11 PM 42.7500 -76.5292 89° East 519 597 40,000  Level Boston Center
Thu 03:18:10 PM 42.7528 -76.3314 89° East 519 597 40,000  Level Boston Center
Thu 03:19:13 PM 42.7536 -76.1164 90° East 519 597 40,000 -645 Level Boston Center
Thu 03:20:11 PM 42.7558 -75.9156 89° East 519 597 38,700 -1,641 Descending Boston Center
Thu 03:21:10 PM 42.7553 -75.7206 90° East 519 597 36,800 -1,900 Descending Boston Center
Thu 03:22:11 PM 42.7356 -75.5300 98° East 513 590 34,900 -1,869 Descending Boston Center
Thu 03:23:12 PM 42.7075 -75.3364 101° East 513 590 33,000 -1,462 Descending Boston Center
Thu 03:24:10 PM 42.6975 -75.1467 94° East 513 590 32,000 -966 Descending Boston Center
Thu 03:25:10 PM 42.7061 -74.9547 86° East 508 585 31,100 -942 Descending Boston Center
Thu 03:26:11 PM 42.7122 -74.7628 87° East 508 585 30,100 -1,033 Descending Boston Center
Thu 03:27:12 PM 42.7203 -74.5708 87° East 508 585 29,000 -807 Descending Boston Center
Thu 03:28:10 PM 42.7278 -74.3847 87° East 503 579 28,500 -763 Descending Boston Center
Thu 03:29:10 PM 42.7325 -74.2153 88° East 498 573 27,500 -992 Descending Boston Center
Thu 03:30:11 PM 42.7394 -74.0344 87° East 488 562 26,500 -992 Descending Boston Center
Thu 03:31:11 PM 42.7458 -73.8536 87° East 483 556 25,500 -1,210 Descending Boston Center
Thu 03:32:10 PM 42.7522 -73.6758 87° East 473 544 24,100 -1,765 Descending Boston Center
Thu 03:33:10 PM 42.7603 -73.5033 86° East 468 539 22,000 -2,033 Descending Boston Center
Thu 03:34:11 PM 42.7658 -73.3339 87° East 453 521 20,000 -1,488 Descending Boston Center
Thu 03:35:11 PM 42.7692 -73.1472 89° East 448 516 19,000 -496 Descending Boston Center
Thu 03:36:12 PM 42.7742 -72.9972 87° East 448 516 19,000 -248 Level Boston Center
Thu 03:37:12 PM 42.7831 -72.8333 86° East 437 503 18,500 -864 Descending Boston Center
Thu 03:38:10 PM 42.7858 -72.6608 89° East 437 503 17,300 -1,729 Descending Boston Center
Thu 03:39:10 PM 42.7900 -72.4967 88° East 437 503 15,100 -2,083 Descending Boston Center
Thu 03:40:11 PM 42.7942 -72.3356 88° East 437 503 13,100 -2,016 Descending Boston Center
Thu 03:41:12 PM 42.8022 -72.1825 86° East 412 474 11,000 -2,118 Descending Boston Center
Thu 03:42:10 PM 42.7997 -72.0214 91° East 390 449 8,900 -1,513 Descending Boston Center
Thu 03:43:11 PM 42.7972 -71.8997 92° East 367 422 8,000 -1,131 Descending Boston Center
Thu 03:44:12 PM 42.7922 -71.7753 93° East 314 361 6,600 -1,686 Descending Boston Center
Thu 03:45:12 PM 42.7856 -71.6875 96° East 274 315 4,600 -1,815 Descending Boston Center
Thu 03:46:11 PM 42.7764 -71.5831 97° East 252 290 3,000 -1,050 Descending Boston Center
Thu 03:47:12 PM 42.7864 -71.5094 79° East 223 257 2,500 -248 Descending Boston Center
Thu 03:48:12 PM 42.8022 -71.4242 76° East 213 245 2,500 -100 Level Boston Center
Thu 03:49:12 PM 42.8269 -71.3786 53° Northeast 180 207 2,300 -458 Descending Boston Center
Thu 03:50:10 PM 42.8625 -71.3950 341° North 109 125 1,600 -706 Descending Boston Center
Thu 03:51:11 PM 42.8939 -71.4114 339° North 117 135 900 -590 Descending Boston Center
Thu 03:52:12 PM 42.9294 -71.4306 338° Northwest 130 150 400 9,126 Descending Boston Center
Thu 03:53:10 PM 42.9608 -71.4528 333° Northwest 130 150 19,000 9,378 Climbing Boston Center
Thu 03:54:11 PM 42.9922 -71.4722 336° Northwest 130 150 19,000  Level Boston Center
Thu 03:55:11 PM 43.0239 -71.4944 333° Northwest 130 150 19,000  Level Boston Center
Thu 03:57:00 PM 42.9328 -71.4358 160° South  Level Estimated
Thu 04:04:00 PM 42.9328 -71.4358 160° South  Level Estimated
Thu 04:05:00 PM 42.9328 -71.4358 160° South  Level Estimated
Thu 04:06:00 PM 42.9328 -71.4358 160° South  Level Estimated
Thu 04:07:00 PM 42.9328 -71.4358 160° South  Level Estimated
Thu 04:08:00 PM 42.9328 -71.4358 160° South  Level Estimated

Login

Don't have an account? Register now (free) for customized features, flight alerts, and more!